HI1025 TAPA-TJSJ
Flight info
| Callsign | HI1025 |
|---|---|
| Flight time | 0h 46m |
| Altitude | 24000 |
| Route | ANU G633 COY RTE4 VEDAS |
| Aircraft | C700/M-SBDGHM1RWXY/LB2 |
Departure
| Time | 2026-05-04 02:01 |
|---|---|
| Airport | V. C. Bird International Airport (TAPA) |
Arrival
| Time | 2026-05-04 02:48 |
|---|---|
| Airport | Luis Munoz Marin International Airport (TJSJ) |
| Time | Latitude | Longitude | Altitude | Speed | Heading |
|---|---|---|---|---|---|
| 2026-05-04 01:44 | 17.14027 | -61.78108 | 61 ft | 0 kts | 210° |
| 2026-05-04 01:56 | 17.14027 | -61.78110 | 55 ft | 1 kts | 226° |
| 2026-05-04 01:56 | 17.14032 | -61.78123 | 58 ft | 5 kts | 296° |
| 2026-05-04 01:57 | 17.14059 | -61.78187 | 59 ft | 11 kts | 284° |
| 2026-05-04 01:57 | 17.14067 | -61.78270 | 66 ft | 12 kts | 272° |
| 2026-05-04 01:57 | 17.14073 | -61.78369 | 65 ft | 15 kts | 273° |
| 2026-05-04 01:57 | 17.14083 | -61.78447 | 67 ft | 18 kts | 278° |
| 2026-05-04 01:58 | 17.14039 | -61.78645 | 61 ft | 25 kts | 236° |
| 2026-05-04 01:58 | 17.13942 | -61.78812 | 59 ft | 28 kts | 238° |
| 2026-05-04 01:58 | 17.13831 | -61.78995 | 57 ft | 32 kts | 237° |
| 2026-05-04 01:58 | 17.13714 | -61.79195 | 58 ft | 33 kts | 239° |
| 2026-05-04 01:59 | 17.13591 | -61.79407 | 62 ft | 35 kts | 238° |
| 2026-05-04 01:59 | 17.13469 | -61.79613 | 59 ft | 27 kts | 238° |
| 2026-05-04 01:59 | 17.13365 | -61.79790 | 60 ft | 31 kts | 238° |
| 2026-05-04 01:59 | 17.13246 | -61.79993 | 56 ft | 34 kts | 238° |
| 2026-05-04 02:00 | 17.13136 | -61.80173 | 58 ft | 7 kts | 217° |
| 2026-05-04 02:00 | 17.13114 | -61.80199 | 58 ft | 1 kts | 315° |
| 2026-05-04 02:00 | 17.13129 | -61.80195 | 58 ft | 4 kts | 34° |
| 2026-05-04 02:00 | 17.13137 | -61.80177 | 58 ft | 0 kts | 53° |
| 2026-05-04 02:01 | 17.13145 | -61.80165 | 57 ft | 16 kts | 57° |
| 2026-05-04 02:01 | 17.13272 | -61.79950 | 57 ft | 89 kts | 59° |
| 2026-05-04 02:01 | 17.13774 | -61.79147 | 327 ft | 164 kts | 54° |
| 2026-05-04 02:01 | 17.14573 | -61.78140 | 1256 ft | 198 kts | 37° |
| 2026-05-04 02:02 | 17.15922 | -61.77872 | 2038 ft | 212 kts | 346° |
| 2026-05-04 02:02 | 17.17084 | -61.78806 | 3019 ft | 223 kts | 307° |
| 2026-05-04 02:02 | 17.17809 | -61.80367 | 4024 ft | 253 kts | 293° |
| 2026-05-04 02:02 | 17.18290 | -61.82268 | 5036 ft | 284 kts | 281° |
| 2026-05-04 02:03 | 17.18586 | -61.84322 | 6022 ft | 290 kts | 279° |
| 2026-05-04 02:03 | 17.18935 | -61.86429 | 6971 ft | 297 kts | 282° |
| 2026-05-04 02:03 | 17.19391 | -61.88568 | 7889 ft | 301 kts | 283° |
| 2026-05-04 02:03 | 17.19833 | -61.90649 | 8831 ft | 293 kts | 282° |
| 2026-05-04 02:04 | 17.20247 | -61.92769 | 9835 ft | 301 kts | 282° |
| 2026-05-04 02:04 | 17.20676 | -61.94963 | 10768 ft | 315 kts | 282° |
| 2026-05-04 02:04 | 17.21135 | -61.97258 | 11714 ft | 332 kts | 282° |
| 2026-05-04 02:04 | 17.21619 | -61.99672 | 12682 ft | 343 kts | 283° |
| 2026-05-04 02:05 | 17.22109 | -62.02130 | 13686 ft | 345 kts | 282° |
| 2026-05-04 02:05 | 17.22592 | -62.04580 | 14595 ft | 350 kts | 282° |
| 2026-05-04 02:05 | 17.23090 | -62.07088 | 15522 ft | 352 kts | 283° |
| 2026-05-04 02:05 | 17.23592 | -62.09608 | 16477 ft | 354 kts | 282° |
| 2026-05-04 02:06 | 17.24089 | -62.12114 | 17857 ft | 353 kts | 282° |
| 2026-05-04 02:06 | 17.24593 | -62.14660 | 19100 ft | 359 kts | 282° |
| 2026-05-04 02:06 | 17.25104 | -62.17240 | 20214 ft | 364 kts | 282° |
| 2026-05-04 02:06 | 17.25619 | -62.19834 | 21264 ft | 372 kts | 282° |
| 2026-05-04 02:07 | 17.26148 | -62.22512 | 22371 ft | 377 kts | 283° |
| 2026-05-04 02:07 | 17.26685 | -62.25230 | 23404 ft | 385 kts | 284° |
| 2026-05-04 02:07 | 17.27236 | -62.28010 | 24054 ft | 401 kts | 284° |
| 2026-05-04 02:07 | 17.27824 | -62.30978 | 24085 ft | 429 kts | 283° |
| 2026-05-04 02:08 | 17.28436 | -62.34088 | 24092 ft | 440 kts | 283° |
| 2026-05-04 02:08 | 17.29044 | -62.37194 | 24091 ft | 437 kts | 283° |
| 2026-05-04 02:08 | 17.29655 | -62.40303 | 24090 ft | 435 kts | 282° |
| 2026-05-04 02:08 | 17.30269 | -62.43411 | 24089 ft | 435 kts | 283° |
| 2026-05-04 02:09 | 17.30875 | -62.46484 | 24091 ft | 434 kts | 283° |
| 2026-05-04 02:09 | 17.31480 | -62.49578 | 24092 ft | 433 kts | 283° |
| 2026-05-04 02:09 | 17.32086 | -62.52670 | 24089 ft | 434 kts | 283° |
| 2026-05-04 02:09 | 17.32695 | -62.55776 | 24089 ft | 437 kts | 283° |
| 2026-05-04 02:10 | 17.33314 | -62.58916 | 24086 ft | 438 kts | 283° |
| 2026-05-04 02:10 | 17.33920 | -62.62019 | 24084 ft | 438 kts | 283° |
| 2026-05-04 02:10 | 17.34523 | -62.65121 | 24084 ft | 437 kts | 283° |
| 2026-05-04 02:10 | 17.35133 | -62.68246 | 24084 ft | 437 kts | 283° |
| 2026-05-04 02:11 | 17.35748 | -62.71380 | 24084 ft | 436 kts | 282° |
| 2026-05-04 02:11 | 17.36349 | -62.74463 | 24085 ft | 435 kts | 283° |
| 2026-05-04 02:11 | 17.36958 | -62.77591 | 24085 ft | 435 kts | 283° |
| 2026-05-04 02:11 | 17.37557 | -62.80662 | 24084 ft | 436 kts | 283° |
| 2026-05-04 02:12 | 17.38164 | -62.83786 | 24101 ft | 436 kts | 283° |
| 2026-05-04 02:12 | 17.38769 | -62.86905 | 24104 ft | 438 kts | 283° |
| 2026-05-04 02:12 | 17.39379 | -62.90036 | 24107 ft | 440 kts | 282° |
| 2026-05-04 02:12 | 17.39981 | -62.93139 | 24110 ft | 439 kts | 282° |
| 2026-05-04 02:13 | 17.40596 | -62.96311 | 24108 ft | 438 kts | 282° |
| 2026-05-04 02:13 | 17.41194 | -62.99402 | 24108 ft | 437 kts | 283° |
| 2026-05-04 02:13 | 17.41800 | -63.02530 | 24108 ft | 436 kts | 283° |
| 2026-05-04 02:13 | 17.42403 | -63.05653 | 24107 ft | 437 kts | 282° |
| 2026-05-04 02:14 | 17.43006 | -63.08775 | 24105 ft | 438 kts | 282° |
| 2026-05-04 02:14 | 17.43606 | -63.11883 | 24104 ft | 439 kts | 282° |
| 2026-05-04 02:14 | 17.44214 | -63.15030 | 24100 ft | 440 kts | 283° |
| 2026-05-04 02:14 | 17.44814 | -63.18150 | 24099 ft | 441 kts | 282° |
| 2026-05-04 02:15 | 17.45427 | -63.21334 | 24094 ft | 441 kts | 283° |
| 2026-05-04 02:15 | 17.46027 | -63.24447 | 24090 ft | 440 kts | 283° |
| 2026-05-04 02:15 | 17.46632 | -63.27595 | 24087 ft | 440 kts | 282° |
| 2026-05-04 02:15 | 17.47230 | -63.30713 | 24085 ft | 440 kts | 282° |
| 2026-05-04 02:16 | 17.47837 | -63.33880 | 24085 ft | 440 kts | 283° |
| 2026-05-04 02:16 | 17.48437 | -63.37008 | 24084 ft | 440 kts | 282° |
| 2026-05-04 02:16 | 17.49042 | -63.40169 | 24084 ft | 441 kts | 283° |
| 2026-05-04 02:16 | 17.49642 | -63.43304 | 24085 ft | 441 kts | 283° |
| 2026-05-04 02:17 | 17.50241 | -63.46438 | 24078 ft | 441 kts | 283° |
| 2026-05-04 02:17 | 17.50848 | -63.49611 | 24079 ft | 442 kts | 282° |
| 2026-05-04 02:17 | 17.51448 | -63.52754 | 24082 ft | 441 kts | 283° |
| 2026-05-04 02:17 | 17.52051 | -63.55919 | 24082 ft | 441 kts | 282° |
| 2026-05-04 02:18 | 17.52644 | -63.59033 | 24087 ft | 440 kts | 282° |
| 2026-05-04 02:18 | 17.53243 | -63.62186 | 24087 ft | 440 kts | 283° |
| 2026-05-04 02:18 | 17.53846 | -63.65350 | 24087 ft | 440 kts | 282° |
| 2026-05-04 02:18 | 17.54441 | -63.68481 | 24087 ft | 441 kts | 282° |
| 2026-05-04 02:19 | 17.55036 | -63.71617 | 24085 ft | 441 kts | 283° |
| 2026-05-04 02:19 | 17.55636 | -63.74787 | 24084 ft | 440 kts | 282° |
| 2026-05-04 02:19 | 17.56231 | -63.77923 | 24085 ft | 442 kts | 282° |
| 2026-05-04 02:19 | 17.56833 | -63.81105 | 24086 ft | 442 kts | 282° |
| 2026-05-04 02:20 | 17.57426 | -63.84243 | 24089 ft | 442 kts | 283° |
| 2026-05-04 02:20 | 17.58019 | -63.87378 | 24089 ft | 441 kts | 282° |
| 2026-05-04 02:20 | 17.58615 | -63.90542 | 24088 ft | 441 kts | 282° |
| 2026-05-04 02:20 | 17.59212 | -63.93698 | 24089 ft | 443 kts | 282° |
| 2026-05-04 02:21 | 17.59814 | -63.96894 | 24090 ft | 444 kts | 282° |
| 2026-05-04 02:21 | 17.60406 | -64.00037 | 24090 ft | 443 kts | 282° |
| 2026-05-04 02:21 | 17.61001 | -64.03209 | 24090 ft | 443 kts | 282° |
| 2026-05-04 02:21 | 17.61597 | -64.06382 | 24092 ft | 442 kts | 282° |
| 2026-05-04 02:22 | 17.62192 | -64.09547 | 24093 ft | 442 kts | 282° |
| 2026-05-04 02:22 | 17.62788 | -64.12725 | 24091 ft | 442 kts | 282° |
| 2026-05-04 02:22 | 17.63375 | -64.15857 | 24092 ft | 444 kts | 282° |
| 2026-05-04 02:22 | 17.63969 | -64.19030 | 24090 ft | 444 kts | 282° |
| 2026-05-04 02:23 | 17.64565 | -64.22216 | 24088 ft | 445 kts | 282° |
| 2026-05-04 02:23 | 17.65162 | -64.25408 | 24089 ft | 443 kts | 282° |
| 2026-05-04 02:23 | 17.65746 | -64.28544 | 24087 ft | 441 kts | 282° |
| 2026-05-04 02:23 | 17.66339 | -64.31725 | 24087 ft | 442 kts | 282° |
| 2026-05-04 02:24 | 17.66929 | -64.34880 | 24093 ft | 444 kts | 282° |
| 2026-05-04 02:24 | 17.67526 | -64.38086 | 24084 ft | 446 kts | 282° |
| 2026-05-04 02:24 | 17.68121 | -64.41289 | 24087 ft | 446 kts | 282° |
| 2026-05-04 02:24 | 17.68711 | -64.44469 | 24086 ft | 446 kts | 282° |
| 2026-05-04 02:25 | 17.69300 | -64.47635 | 24088 ft | 445 kts | 281° |
| 2026-05-04 02:25 | 17.69891 | -64.50821 | 24086 ft | 443 kts | 282° |
| 2026-05-04 02:25 | 17.70482 | -64.54007 | 24086 ft | 444 kts | 282° |
| 2026-05-04 02:25 | 17.71068 | -64.57176 | 24085 ft | 446 kts | 282° |
| 2026-05-04 02:26 | 17.71664 | -64.60397 | 24089 ft | 448 kts | 281° |
| 2026-05-04 02:26 | 17.72252 | -64.63581 | 24088 ft | 447 kts | 282° |
| 2026-05-04 02:26 | 17.72845 | -64.66791 | 24088 ft | 446 kts | 281° |
| 2026-05-04 02:26 | 17.73430 | -64.69956 | 24106 ft | 445 kts | 282° |
| 2026-05-04 02:27 | 17.74108 | -64.73131 | 24105 ft | 444 kts | 283° |
| 2026-05-04 02:27 | 17.74769 | -64.76275 | 24106 ft | 444 kts | 282° |
| 2026-05-04 02:27 | 17.75424 | -64.79458 | 24105 ft | 444 kts | 283° |
| 2026-05-04 02:27 | 17.76087 | -64.82614 | 24106 ft | 447 kts | 283° |
| 2026-05-04 02:28 | 17.76769 | -64.85818 | 24108 ft | 447 kts | 283° |
| 2026-05-04 02:28 | 17.77437 | -64.88987 | 24105 ft | 446 kts | 283° |
| 2026-05-04 02:28 | 17.78094 | -64.92140 | 24103 ft | 444 kts | 283° |
| 2026-05-04 02:28 | 17.78759 | -64.95319 | 24098 ft | 443 kts | 283° |
| 2026-05-04 02:29 | 17.79424 | -64.98479 | 24096 ft | 444 kts | 283° |
| 2026-05-04 02:29 | 17.80085 | -65.01628 | 24094 ft | 445 kts | 283° |
| 2026-05-04 02:29 | 17.80753 | -65.04827 | 24093 ft | 446 kts | 283° |
| 2026-05-04 02:29 | 17.81419 | -65.08020 | 24090 ft | 448 kts | 283° |
| 2026-05-04 02:30 | 17.82080 | -65.11180 | 24086 ft | 446 kts | 283° |
| 2026-05-04 02:30 | 17.82749 | -65.14380 | 24082 ft | 446 kts | 282° |
| 2026-05-04 02:30 | 17.83405 | -65.17530 | 24082 ft | 444 kts | 282° |
| 2026-05-04 02:30 | 17.84057 | -65.20663 | 24080 ft | 444 kts | 282° |
| 2026-05-04 02:31 | 17.84718 | -65.23834 | 24082 ft | 446 kts | 282° |
| 2026-05-04 02:31 | 17.85387 | -65.27049 | 24081 ft | 447 kts | 283° |
| 2026-05-04 02:31 | 17.86045 | -65.30216 | 24088 ft | 449 kts | 283° |
| 2026-05-04 02:31 | 17.86714 | -65.33432 | 23822 ft | 445 kts | 282° |
| 2026-05-04 02:32 | 17.87358 | -65.36534 | 23230 ft | 432 kts | 283° |
| 2026-05-04 02:32 | 17.87982 | -65.39542 | 22692 ft | 410 kts | 282° |
| 2026-05-04 02:32 | 17.88568 | -65.42370 | 22195 ft | 390 kts | 282° |
| 2026-05-04 02:32 | 17.89132 | -65.45096 | 21712 ft | 376 kts | 282° |
| 2026-05-04 02:33 | 17.89683 | -65.47755 | 21232 ft | 369 kts | 282° |
| 2026-05-04 02:33 | 17.90226 | -65.50380 | 20753 ft | 367 kts | 282° |
| 2026-05-04 02:33 | 17.90770 | -65.53013 | 20258 ft | 367 kts | 282° |
| 2026-05-04 02:33 | 17.91391 | -65.55577 | 19771 ft | 365 kts | 289° |
| 2026-05-04 02:34 | 17.92445 | -65.57970 | 19285 ft | 361 kts | 299° |
| 2026-05-04 02:34 | 17.93895 | -65.60101 | 18816 ft | 356 kts | 309° |
| 2026-05-04 02:34 | 17.95676 | -65.61898 | 18354 ft | 352 kts | 319° |
| 2026-05-04 02:34 | 17.97580 | -65.63523 | 17836 ft | 350 kts | 320° |
| 2026-05-04 02:35 | 17.99454 | -65.65144 | 17305 ft | 351 kts | 319° |
| 2026-05-04 02:35 | 18.01312 | -65.66758 | 16846 ft | 348 kts | 319° |
| 2026-05-04 02:35 | 18.03179 | -65.68371 | 16391 ft | 347 kts | 320° |
| 2026-05-04 02:35 | 18.05046 | -65.69982 | 15938 ft | 345 kts | 320° |
| 2026-05-04 02:36 | 18.06896 | -65.71583 | 15491 ft | 344 kts | 320° |
| 2026-05-04 02:36 | 18.08731 | -65.73171 | 15044 ft | 343 kts | 320° |
| 2026-05-04 02:36 | 18.10587 | -65.74779 | 14581 ft | 343 kts | 320° |
| 2026-05-04 02:36 | 18.12408 | -65.76357 | 14148 ft | 342 kts | 320° |
| 2026-05-04 02:37 | 18.14247 | -65.77949 | 13673 ft | 340 kts | 321° |
| 2026-05-04 02:37 | 18.16072 | -65.79526 | 13215 ft | 336 kts | 321° |
| 2026-05-04 02:37 | 18.17851 | -65.81067 | 12779 ft | 333 kts | 321° |
| 2026-05-04 02:37 | 18.19636 | -65.82617 | 12343 ft | 331 kts | 321° |
| 2026-05-04 02:38 | 18.21407 | -65.84154 | 11912 ft | 328 kts | 321° |
| 2026-05-04 02:38 | 18.23155 | -65.85663 | 11485 ft | 327 kts | 321° |
| 2026-05-04 02:38 | 18.24906 | -65.87180 | 11052 ft | 321 kts | 321° |
| 2026-05-04 02:38 | 18.26593 | -65.88646 | 10641 ft | 309 kts | 322° |
| 2026-05-04 02:39 | 18.28230 | -65.90069 | 10254 ft | 300 kts | 321° |
| 2026-05-04 02:39 | 18.29820 | -65.91448 | 9864 ft | 294 kts | 321° |
| 2026-05-04 02:39 | 18.31383 | -65.92805 | 9468 ft | 294 kts | 322° |
| 2026-05-04 02:39 | 18.32981 | -65.94189 | 9080 ft | 296 kts | 321° |
| 2026-05-04 02:40 | 18.34457 | -65.95681 | 8685 ft | 298 kts | 309° |
| 2026-05-04 02:40 | 18.35537 | -65.97549 | 8291 ft | 300 kts | 294° |
| 2026-05-04 02:40 | 18.36135 | -65.99649 | 7902 ft | 300 kts | 279° |
| 2026-05-04 02:40 | 18.36244 | -66.01833 | 7510 ft | 298 kts | 269° |
| 2026-05-04 02:41 | 18.36236 | -66.04016 | 7117 ft | 297 kts | 269° |
| 2026-05-04 02:41 | 18.36240 | -66.06188 | 6726 ft | 296 kts | 269° |
| 2026-05-04 02:41 | 18.36247 | -66.08327 | 6307 ft | 296 kts | 269° |
| 2026-05-04 02:41 | 18.36251 | -66.10492 | 5910 ft | 294 kts | 269° |
| 2026-05-04 02:42 | 18.36255 | -66.12654 | 5523 ft | 294 kts | 269° |
| 2026-05-04 02:42 | 18.36258 | -66.14789 | 5134 ft | 286 kts | 269° |
| 2026-05-04 02:42 | 18.36321 | -66.16824 | 4749 ft | 270 kts | 276° |
| 2026-05-04 02:42 | 18.37021 | -66.18555 | 4388 ft | 256 kts | 310° |
| 2026-05-04 02:43 | 18.38372 | -66.19662 | 4065 ft | 239 kts | 339° |
| 2026-05-04 02:43 | 18.39943 | -66.19985 | 3765 ft | 223 kts | 6° |
| 2026-05-04 02:43 | 18.41398 | -66.19602 | 3476 ft | 211 kts | 30° |
| 2026-05-04 02:43 | 18.42521 | -66.18696 | 3193 ft | 203 kts | 53° |
| 2026-05-04 02:44 | 18.43212 | -66.17422 | 2896 ft | 199 kts | 74° |
| 2026-05-04 02:44 | 18.43398 | -66.16009 | 2641 ft | 197 kts | 91° |
| 2026-05-04 02:44 | 18.43379 | -66.14554 | 2382 ft | 199 kts | 91° |
| 2026-05-04 02:44 | 18.43377 | -66.13089 | 2122 ft | 200 kts | 91° |
| 2026-05-04 02:45 | 18.43377 | -66.11622 | 1863 ft | 200 kts | 91° |
| 2026-05-04 02:45 | 18.43375 | -66.10237 | 1613 ft | 177 kts | 91° |
| 2026-05-04 02:45 | 18.43374 | -66.09038 | 1378 ft | 154 kts | 91° |
| 2026-05-04 02:45 | 18.43372 | -66.08018 | 1225 ft | 137 kts | 91° |
| 2026-05-04 02:46 | 18.43369 | -66.07013 | 1052 ft | 138 kts | 91° |
| 2026-05-04 02:46 | 18.43386 | -66.06030 | 943 ft | 133 kts | 89° |
| 2026-05-04 02:46 | 18.43374 | -66.05053 | 759 ft | 134 kts | 86° |
| 2026-05-04 02:46 | 18.43366 | -66.04093 | 585 ft | 132 kts | 88° |
| 2026-05-04 02:47 | 18.43365 | -66.03110 | 420 ft | 133 kts | 86° |
| 2026-05-04 02:47 | 18.43356 | -66.02173 | 259 ft | 124 kts | 85° |
| 2026-05-04 02:47 | 18.43355 | -66.01295 | 71 ft | 115 kts | 91° |
| 2026-05-04 02:47 | 18.43351 | -66.00561 | 11 ft | 78 kts | 87° |
| 2026-05-04 02:48 | 18.43353 | -66.00152 | 11 ft | 23 kts | 90° |
| 2026-05-04 02:48 | 18.43358 | -66.00028 | 11 ft | 22 kts | 81° |
| 2026-05-04 02:48 | 18.43422 | -65.99904 | 11 ft | 12 kts | 36° |
| 2026-05-04 02:48 | 18.43488 | -65.99910 | 11 ft | 12 kts | 347° |
| 2026-05-04 02:49 | 18.43562 | -65.99956 | 11 ft | 10 kts | 293° |
| 2026-05-04 02:49 | 18.43636 | -65.99981 | 11 ft | 14 kts | 7° |
| 2026-05-04 02:49 | 18.43742 | -66.00005 | 11 ft | 18 kts | 337° |
| 2026-05-04 02:49 | 18.43871 | -66.00061 | 11 ft | 22 kts | 337° |
| 2026-05-04 02:50 | 18.44028 | -66.00130 | 12 ft | 26 kts | 338° |
| 2026-05-04 02:50 | 18.44154 | -66.00185 | 12 ft | 6 kts | 348° |
| 2026-05-04 02:50 | 18.44201 | -66.00111 | 12 ft | 17 kts | 68° |
| 2026-05-04 02:50 | 18.44253 | -65.99986 | 12 ft | 16 kts | 65° |
| 2026-05-04 02:51 | 18.44242 | -65.99925 | 12 ft | 11 kts | 156° |
| 2026-05-04 02:51 | 18.44166 | -65.99897 | 12 ft | 10 kts | 116° |
| 2026-05-04 02:51 | 18.44174 | -65.99853 | 12 ft | 3 kts | 7° |
| 2026-05-04 02:51 | 18.44183 | -65.99864 | 12 ft | 2 kts | 246° |
| 2026-05-04 02:52 | 18.44180 | -65.99870 | 12 ft | 0 kts | 245° |